Terminal Aerodrome Forecast
Issued by NWS

Home | Current Version | Previous Version | Text Only | Print | Product List | Glossary On
Versions: 1 2 3 4 5 6 7 8 9 10 11 12
000
FTUS46 KLOX 252300
TAFBUR
TAF
KBUR 252332Z 2600/2624 18010KT P6SM BKN150
     FM260400 13006KT P6SM BKN150
     FM261300 13006KT 5SM HZ BKN150
     FM261700 15006KT P6SM BKN150
     FM262000 16010KT P6SM BKN150=

USA.gov is the U.S. government's official web portal to all federal, state and local government web resources and services.